Time;durP1;ratioP1;P1;durP2;ratioP2;P2;SDS_P1;SDS_P2;PMS_P1;PMS_P2;Temp;Humidity;BMP_temperature;BMP_pressure;BME280_temperature;BME280_humidity;BME280_pressure;Samples;Min_cycle;Max_cycle;Signal;HPM_P1;HPM_P2
2023/01/31 00:01:14;;;;;;;10.63;6.35;;;20.70;60.20;;;;;;5093057;28;20034;-76
2023/01/31 00:03:41;;;;;;;10.15;6.65;;;20.60;60.20;;;;;;5091830;28;20448;-76
2023/01/31 00:06:30;;;;;;;11.25;7.25;;;20.70;60.30;;;;;;5092858;28;20649;-76
2023/01/31 00:08:58;;;;;;;10.32;7.40;;;20.60;60.30;;;;;;5029986;28;20071;-75
2023/01/31 00:11:26;;;;;;;10.98;6.85;;;20.60;60.20;;;;;;5030054;28;20414;-75
2023/01/31 00:13:53;;;;;;;10.70;7.03;;;20.60;60.20;;;;;;5013637;28;20502;-76
2023/01/31 00:16:21;;;;;;;11.10;6.63;;;20.60;60.20;;;;;;5012902;28;20060;-75
2023/01/31 00:18:47;;;;;;;11.68;6.78;;;20.60;60.10;;;;;;5029913;28;20033;-75
2023/01/31 00:21:18;;;;;;;13.05;6.97;;;20.70;60.40;;;;;;5029768;28;20140;-75
2023/01/31 00:23:46;;;;;;;13.15;6.78;;;20.50;60.20;;;;;;5029941;28;20034;-75
2023/01/31 00:26:19;;;;;;;13.32;6.80;;;20.60;60.50;;;;;;5029848;28;20045;-75
2023/01/31 00:28:47;;;;;;;12.70;6.88;;;20.50;60.30;;;;;;5029908;28;20033;-75
2023/01/31 00:31:14;;;;;;;12.20;6.65;;;20.50;60.30;;;;;;5029530;28;20080;-75
2023/01/31 00:33:43;;;;;;;9.57;6.10;;;20.50;60.20;;;;;;4996771;28;20100;-75
2023/01/31 00:36:12;;;;;;;13.88;6.93;;;20.50;60.20;;;;;;5013262;28;20034;-73
2023/01/31 00:38:38;;;;;;;11.13;7.10;;;20.60;59.90;;;;;;5029599;28;20107;-75
2023/01/31 00:41:04;;;;;;;10.20;6.78;;;20.50;59.60;;;;;;5029600;28;20072;-75
2023/01/31 00:43:32;;;;;;;9.32;6.40;;;20.70;59.50;;;;;;5029733;28;20042;-74
2023/01/31 00:45:58;;;;;;;12.57;7.75;;;20.60;59.10;;;;;;5059134;28;20044;-75
2023/01/31 00:48:25;;;;;;;10.10;6.65;;;20.70;59.10;;;;;;5056273;28;20711;-75
2023/01/31 00:50:51;;;;;;;11.18;6.57;;;20.70;58.90;;;;;;5090696;28;20035;-75
2023/01/31 00:53:22;;;;;;;11.65;7.03;;;20.80;58.80;;;;;;5092119;28;20038;-75
2023/01/31 00:55:50;;;;;;;12.23;7.13;;;20.80;58.40;;;;;;5091729;28;20432;-75
2023/01/31 00:58:16;;;;;;;10.02;6.72;;;20.80;58.20;;;;;;5089060;28;20047;-75
2023/01/31 01:00:42;;;;;;;10.65;6.70;;;20.80;58.00;;;;;;5089288;28;20040;-75
2023/01/31 01:03:08;;;;;;;9.75;6.10;;;20.80;57.90;;;;;;5072548;28;20469;-75
2023/01/31 01:05:34;;;;;;;14.05;6.38;;;20.90;57.90;;;;;;5055817;28;20044;-75
2023/01/31 01:08:00;;;;;;;11.73;6.82;;;20.90;57.90;;;;;;5089381;28;20052;-75
2023/01/31 01:10:26;;;;;;;11.20;6.47;;;20.80;57.70;;;;;;5088957;28;20490;-75
2023/01/31 01:12:52;;;;;;;9.75;6.72;;;21.00;57.80;;;;;;5089245;28;20407;-75
2023/01/31 01:15:18;;;;;;;10.23;5.95;;;20.90;57.60;;;;;;5072330;28;20039;-75
2023/01/31 01:17:44;;;;;;;11.25;6.53;;;21.00;57.40;;;;;;5072423;28;20088;-75
2023/01/31 01:20:11;;;;;;;10.68;6.93;;;21.00;57.30;;;;;;5071683;28;20043;-75
2023/01/31 01:22:37;;;;;;;9.35;6.90;;;21.10;57.20;;;;;;5088998;28;20052;-75
2023/01/31 01:25:05;;;;;;;10.75;6.82;;;21.00;57.20;;;;;;5088934;28;20527;-75
2023/01/31 01:27:31;;;;;;;10.70;7.10;;;21.00;57.20;;;;;;5086345;28;20072;-75
2023/01/31 01:29:57;;;;;;;10.00;6.80;;;21.00;57.00;;;;;;5066440;28;20130;-75
2023/01/31 01:32:23;;;;;;;10.85;6.82;;;21.00;56.90;;;;;;5069495;28;20048;-75
2023/01/31 01:34:51;;;;;;;12.10;7.50;;;21.00;56.80;;;;;;5069312;28;20396;-75
2023/01/31 01:37:20;;;;;;;11.63;6.70;;;21.00;56.70;;;;;;5070735;28;20021;-76
2023/01/31 01:39:51;;;;;;;10.27;7.18;;;21.10;56.70;;;;;;5071415;28;20043;-75
2023/01/31 01:42:22;;;;;;;12.05;7.35;;;21.00;56.70;;;;;;5069890;28;20041;-75
2023/01/31 01:44:53;;;;;;;8.98;6.20;;;20.90;56.50;;;;;;5068582;28;20710;-75
2023/01/31 01:47:27;;;;;;;9.90;6.75;;;20.90;56.50;;;;;;5068434;28;20045;-76
2023/01/31 01:50:19;;;;;;;10.82;6.70;;;21.00;56.40;;;;;;5068632;28;20063;-76
2023/01/31 01:52:53;;;;;;;9.02;5.90;;;21.00;56.30;;;;;;5068572;28;20032;-76
2023/01/31 01:55:27;;;;;;;9.45;6.38;;;21.00;56.20;;;;;;5068497;28;20190;-75
2023/01/31 01:57:59;;;;;;;9.38;5.95;;;21.00;56.20;;;;;;5068444;28;20469;-76
2023/01/31 02:00:29;;;;;;;9.20;5.90;;;21.00;56.20;;;;;;5068487;28;20055;-75
2023/01/31 02:02:57;;;;;;;9.88;6.50;;;21.00;56.10;;;;;;5068206;28;20063;-76
2023/01/31 02:05:52;;;;;;;11.90;7.28;;;21.10;56.00;;;;;;5085202;28;20037;-75
2023/01/31 02:08:20;;;;;;;10.63;6.93;;;21.20;55.90;;;;;;5028419;28;20435;-75
2023/01/31 02:10:52;;;;;;;11.10;6.43;;;21.10;55.90;;;;;;5027773;28;20058;-76
2023/01/31 02:13:20;;;;;;;10.32;6.22;;;21.10;55.90;;;;;;5027716;28;20058;-75
2023/01/31 02:15:47;;;;;;;11.05;6.55;;;21.10;55.80;;;;;;5037729;28;20040;-76
2023/01/31 02:18:14;;;;;;;9.18;6.93;;;21.10;55.60;;;;;;5031613;28;20037;-76
2023/01/31 02:21:06;;;;;;;9.70;6.72;;;21.20;55.50;;;;;;5031655;28;20112;-76
2023/01/31 02:23:56;;;;;;;11.57;6.95;;;21.10;55.50;;;;;;5015205;28;20111;-75
2023/01/31 02:26:43;;;;;;;11.25;6.47;;;21.00;55.40;;;;;;5048177;28;20049;-75
2023/01/31 02:29:37;;;;;;;12.70;7.53;;;21.00;55.40;;;;;;5048021;28;20112;-76
2023/01/31 02:32:19;;;;;;;12.85;7.40;;;20.90;55.40;;;;;;5031490;28;20079;-75
2023/01/31 02:34:54;;;;;;;12.90;7.00;;;21.00;55.50;;;;;;5031586;28;20040;-76
2023/01/31 02:37:54;;;;;;;11.43;7.47;;;20.90;55.60;;;;;;5031594;28;20047;-75
2023/01/31 02:40:55;;;;;;;11.18;7.13;;;20.90;55.50;;;;;;5014725;28;20158;-75
2023/01/31 02:46:43;;;;;;;10.43;6.38;;;20.70;55.40;;;;;;5051853;28;20033;-76
2023/01/31 02:49:40;;;;;;;10.95;7.18;;;20.70;55.50;;;;;;5034997;28;20064;-76
2023/01/31 02:52:15;;;;;;;;;;;20.70;55.40;;;;;;5035505;28;20052;-76
2023/01/31 02:57:37;;;;;;;10.70;6.95;;;20.70;55.20;;;;;;5054722;28;20075;-76
2023/01/31 03:00:06;;;;;;;11.85;6.28;;;20.80;55.10;;;;;;5054903;28;20072;-76
2023/01/31 03:02:32;;;;;;;12.73;7.05;;;20.90;55.10;;;;;;5054670;28;20047;-76
2023/01/31 03:05:00;;;;;;;10.00;7.38;;;20.80;54.90;;;;;;5071416;28;20036;-76
2023/01/31 03:07:32;;;;;;;11.55;6.97;;;20.90;54.80;;;;;;5054602;28;20032;-76
2023/01/31 03:10:41;;;;;;;11.85;7.60;;;20.80;54.70;;;;;;5053994;28;20045;-75
2023/01/31 03:13:39;;;;;;;11.75;6.47;;;20.90;54.70;;;;;;4994982;28;20046;-76
2023/01/31 03:19:33;;;;;;;11.63;6.95;;;20.80;54.40;;;;;;4995252;28;20041;-76
2023/01/31 03:22:10;;;;;;;11.82;6.55;;;20.80;54.40;;;;;;4994748;28;20070;-76
2023/01/31 03:24:39;;;;;;;9.57;6.53;;;20.80;54.40;;;;;;4994976;28;20034;-76
2023/01/31 03:27:06;;;;;;;12.43;7.53;;;20.70;54.40;;;;;;4994970;28;20045;-76
2023/01/31 03:29:35;;;;;;;9.55;6.68;;;20.70;54.50;;;;;;4978652;28;20156;-76
2023/01/31 03:32:12;;;;;;;10.95;6.68;;;20.70;54.40;;;;;;4994841;28;20103;-76
2023/01/31 03:34:39;;;;;;;11.70;7.07;;;20.70;54.40;;;;;;4994618;28;20184;-76
2023/01/31 03:37:20;;;;;;;11.07;7.40;;;20.60;54.30;;;;;;4994222;28;20046;-76
2023/01/31 03:40:01;;;;;;;11.73;7.07;;;20.50;54.40;;;;;;5008085;28;20038;-76
2023/01/31 03:42:38;;;;;;;11.02;7.63;;;20.50;54.30;;;;;;4975010;28;20049;-76
2023/01/31 03:45:39;;;;;;;11.70;6.63;;;20.50;54.40;;;;;;4975092;28;20042;-76
2023/01/31 03:48:13;;;;;;;12.10;7.65;;;20.50;54.30;;;;;;5007588;28;20038;-76
2023/01/31 03:50:46;;;;;;;12.60;6.97;;;20.60;54.20;;;;;;5092712;28;20031;-76
2023/01/31 03:53:21;;;;;;;10.30;7.28;;;20.60;54.00;;;;;;5093819;28;20078;-76
2023/01/31 03:55:53;;;;;;;11.43;6.82;;;20.60;53.90;;;;;;5094059;28;20093;-76
2023/01/31 03:58:22;;;;;;;11.82;6.65;;;20.50;53.90;;;;;;5094063;28;20166;-75
2023/01/31 04:00:50;;;;;;;10.80;7.30;;;20.70;53.90;;;;;;5094042;28;20396;-76
2023/01/31 04:03:27;;;;;;;9.25;6.50;;;20.70;53.80;;;;;;5093601;28;20084;-76
2023/01/31 04:05:54;;;;;;;11.10;7.22;;;20.70;53.70;;;;;;5093765;28;20655;-76
2023/01/31 04:08:21;;;;;;;10.63;6.38;;;20.70;53.60;;;;;;5093818;28;20089;-76
2023/01/31 04:10:57;;;;;;;12.50;7.43;;;20.60;53.50;;;;;;5093665;28;20221;-76
2023/01/31 04:13:23;;;;;;;10.40;6.93;;;20.60;53.40;;;;;;5093322;28;20043;-77
2023/01/31 04:15:49;;;;;;;9.82;6.35;;;20.70;53.50;;;;;;5110698;28;20047;-76
2023/01/31 04:18:15;;;;;;;11.52;6.43;;;20.50;53.40;;;;;;5110675;28;20039;-76
2023/01/31 04:20:41;;;;;;;14.90;7.53;;;20.60;53.50;;;;;;5107006;28;20472;-76
2023/01/31 04:23:07;;;;;;;11.65;6.40;;;20.60;53.40;;;;;;5072561;28;20033;-76
2023/01/31 04:25:33;;;;;;;10.10;6.43;;;20.60;53.60;;;;;;5071260;28;20043;-76
2023/01/31 04:27:59;;;;;;;8.73;6.15;;;20.60;53.20;;;;;;5072534;28;20373;-76
2023/01/31 04:30:25;;;;;;;9.90;6.63;;;20.50;53.40;;;;;;5072704;28;20053;-76
2023/01/31 04:32:51;;;;;;;12.32;6.72;;;20.60;53.40;;;;;;5072120;28;20040;-76
2023/01/31 04:35:17;;;;;;;10.23;6.05;;;20.80;53.10;;;;;;5071068;28;20037;-76
2023/01/31 04:37:43;;;;;;;9.88;6.40;;;20.70;53.10;;;;;;5072280;28;20032;-76
2023/01/31 04:40:11;;;;;;;10.95;6.63;;;20.80;53.20;;;;;;5072155;28;20047;-76
2023/01/31 04:42:37;;;;;;;13.15;7.22;;;20.70;53.30;;;;;;5071878;28;20029;-76
2023/01/31 04:45:03;;;;;;;9.57;5.75;;;20.80;53.10;;;;;;5072190;28;20032;-74
2023/01/31 04:47:29;;;;;;;13.57;6.35;;;20.80;53.60;;;;;;5071852;28;20698;-76
2023/01/31 04:49:55;;;;;;;7.80;4.97;;;21.00;53.50;;;;;;5070532;28;20029;-76
2023/01/31 04:52:23;;;;;;;9.80;5.10;;;21.20;53.10;;;;;;5069671;28;20374;-75
2023/01/31 04:54:49;;;;;;;8.38;4.35;;;21.20;52.90;;;;;;5071765;28;20043;-75
2023/01/31 04:57:15;;;;;;;11.65;6.45;;;21.40;52.80;;;;;;5071424;28;20063;-76
2023/01/31 04:59:41;;;;;;;11.27;6.43;;;21.50;52.80;;;;;;5070444;28;20024;-76
2023/01/31 05:02:07;;;;;;;11.75;7.15;;;21.60;52.80;;;;;;5071370;28;20473;-76
2023/01/31 05:04:33;;;;;;;10.25;6.15;;;21.70;52.90;;;;;;5089888;28;20028;-76
2023/01/31 05:06:59;;;;;;;9.98;6.80;;;21.80;53.00;;;;;;5091509;28;20565;-75
2023/01/31 05:09:25;;;;;;;12.68;6.60;;;21.70;53.00;;;;;;5091385;28;20040;-76
2023/01/31 05:11:51;;;;;;;9.48;6.45;;;21.70;53.10;;;;;;5091763;28;20070;-74
2023/01/31 05:14:19;;;;;;;8.60;5.05;;;21.50;53.40;;;;;;5091512;28;20516;-74
2023/01/31 05:16:46;;;;;;;8.57;5.32;;;21.40;54.80;;;;;;5091566;28;20032;-72
2023/01/31 05:19:13;;;;;;;5.80;2.67;;;21.50;54.20;;;;;;5091417;28;20032;-72
2023/01/31 05:21:57;;;;;;;2.13;1.92;;;21.60;52.40;;;;;;5091459;28;20388;-72
2023/01/31 05:24:24;;;;;;;13.30;9.35;;;21.70;49.10;;;;;;5091135;28;20032;-75
2023/01/31 05:26:55;;;;;;;13.88;8.48;;;21.80;49.20;;;;;;5091631;28;20039;-74
2023/01/31 05:29:21;;;;;;;10.07;7.38;;;21.90;53.30;;;;;;5091544;28;20028;-72
2023/01/31 05:31:53;;;;;;;10.57;7.75;;;22.20;54.50;;;;;;5091608;28;20028;-74
2023/01/31 05:34:20;;;;;;;8.75;5.63;;;22.30;56.50;;;;;;5091390;28;20089;-74
2023/01/31 05:36:46;;;;;;;8.15;6.00;;;22.30;57.50;;;;;;5089912;28;20032;-73
2023/01/31 05:39:12;;;;;;;7.93;5.68;;;22.40;58.60;;;;;;5091130;28;20024;-74
2023/01/31 05:41:38;;;;;;;8.60;6.72;;;22.40;59.50;;;;;;5091216;28;20051;-74
2023/01/31 05:44:05;;;;;;;9.70;7.20;;;22.30;60.90;;;;;;5072071;28;20043;-74
2023/01/31 05:46:31;;;;;;;11.07;6.95;;;22.40;61.50;;;;;;5088750;28;20048;-75
2023/01/31 05:48:57;;;;;;;9.23;6.25;;;22.40;61.20;;;;;;5091460;28;20426;-74
2023/01/31 05:51:23;;;;;;;8.73;6.88;;;22.60;61.60;;;;;;5091369;28;20036;-75
2023/01/31 05:53:49;;;;;;;9.95;6.90;;;22.50;61.70;;;;;;5091224;28;20040;-76
2023/01/31 05:56:15;;;;;;;9.60;6.05;;;22.60;59.70;;;;;;5051442;28;20041;-73
2023/01/31 05:58:41;;;;;;;9.45;5.93;;;22.50;60.50;;;;;;5068603;28;20040;-78
2023/01/31 06:01:08;;;;;;;9.75;6.20;;;22.50;59.00;;;;;;5068141;28;20130;-74
2023/01/31 06:03:34;;;;;;;9.02;6.15;;;22.50;58.20;;;;;;5051797;28;20461;-78
2023/01/31 06:06:00;;;;;;;11.05;6.60;;;22.50;57.60;;;;;;5068399;28;20048;-76
2023/01/31 06:08:26;;;;;;;13.25;6.55;;;22.30;57.00;;;;;;5035974;28;20047;-78
2023/01/31 06:10:52;;;;;;;8.85;6.07;;;22.30;57.50;;;;;;5048074;28;20424;-80
2023/01/31 06:13:18;;;;;;;13.63;6.70;;;22.20;58.80;;;;;;5056642;28;20029;-81
2023/01/31 06:15:44;;;;;;;6.45;4.18;;;22.00;60.30;;;;;;5072180;28;20037;-81
2023/01/31 06:18:12;;;;;;;7.88;4.65;;;22.10;59.40;;;;;;5072237;28;20033;-84
2023/01/31 06:20:38;;;;;;;9.02;4.15;;;22.20;58.90;;;;;;5072571;28;20028;-82
2023/01/31 06:23:04;;;;;;;7.80;5.05;;;22.20;57.10;;;;;;5072316;28;20048;-80
2023/01/31 06:25:30;;;;;;;10.88;4.70;;;22.20;55.60;;;;;;5055553;28;20060;-78
2023/01/31 06:27:56;;;;;;;10.48;5.75;;;22.30;54.60;;;;;;5090148;28;20047;-79
2023/01/31 06:30:22;;;;;;;10.32;5.65;;;22.20;53.60;;;;;;5095100;28;20028;-79
2023/01/31 06:32:48;;;;;;;8.88;5.78;;;22.20;53.40;;;;;;5095070;28;20043;-79
2023/01/31 06:35:15;;;;;;;12.60;5.50;;;22.30;53.60;;;;;;5094573;28;20028;-81
2023/01/31 06:37:41;;;;;;;8.43;5.82;;;22.30;53.70;;;;;;5093108;28;20503;-80
2023/01/31 06:40:08;;;;;;;12.07;6.22;;;22.20;53.60;;;;;;5106789;28;20020;-79
2023/01/31 06:42:34;;;;;;;9.45;6.32;;;22.30;53.60;;;;;;5100385;28;20067;-80
2023/01/31 06:45:00;;;;;;;9.85;7.13;;;22.20;53.60;;;;;;5094702;28;20465;-80
2023/01/31 06:47:26;;;;;;;9.90;6.28;;;22.20;53.90;;;;;;5113206;28;20026;-80
2023/01/31 06:49:52;;;;;;;13.02;8.90;;;22.20;53.90;;;;;;5115315;28;20131;-79
2023/01/31 06:52:17;;;;;;;11.75;8.45;;;22.30;53.90;;;;;;5113624;28;20110;-83
2023/01/31 06:54:43;;;;;;;15.32;8.45;;;22.10;55.00;;;;;;5105572;28;20066;-80
2023/01/31 06:57:09;;;;;;;17.92;8.70;;;21.90;55.50;;;;;;5093530;28;20054;-78
2023/01/31 06:59:35;;;;;;;14.85;8.68;;;21.60;55.70;;;;;;5094625;28;20059;-79
2023/01/31 07:02:01;;;;;;;16.02;10.07;;;21.60;56.00;;;;;;5094322;28;20036;-81
2023/01/31 07:04:27;;;;;;;12.18;8.70;;;21.50;56.90;;;;;;5094636;28;20058;-79
2023/01/31 07:06:53;;;;;;;18.73;10.13;;;21.90;60.70;;;;;;5094481;28;20477;-77
2023/01/31 07:09:19;;;;;;;16.60;9.95;;;22.30;62.30;;;;;;5094065;28;20131;-78
2023/01/31 07:11:45;;;;;;;18.40;9.70;;;22.50;63.70;;;;;;5103563;28;20106;-79
2023/01/31 07:14:11;;;;;;;14.60;9.77;;;22.40;57.50;;;;;;5114515;28;20031;-75
2023/01/31 07:16:37;;;;;;;16.23;9.02;;;22.10;56.90;;;;;;5114750;28;20028;-81
2023/01/31 07:19:03;;;;;;;11.15;7.38;;;21.90;56.70;;;;;;5114489;28;20034;-81
2023/01/31 07:21:29;;;;;;;14.93;7.78;;;21.80;57.10;;;;;;5114610;28;20032;-82
2023/01/31 07:23:55;;;;;;;13.13;8.02;;;21.60;56.70;;;;;;5114481;28;20043;-81
2023/01/31 07:26:21;;;;;;;10.82;7.28;;;21.60;57.00;;;;;;5113177;28;20440;-79
2023/01/31 07:28:47;;;;;;;11.20;7.78;;;21.50;58.30;;;;;;5113056;28;20380;-79
2023/01/31 07:31:14;;;;;;;13.02;8.43;;;21.40;58.50;;;;;;5114438;28;20043;-81
2023/01/31 07:33:40;;;;;;;16.00;8.57;;;21.30;58.90;;;;;;5113884;28;20113;-82
2023/01/31 07:36:10;;;;;;;15.27;8.27;;;21.40;59.20;;;;;;5112397;28;20036;-81
2023/01/31 07:38:36;;;;;;;12.27;8.75;;;21.40;59.40;;;;;;5113786;28;20474;-77
2023/01/31 07:41:04;;;;;;;14.40;7.68;;;21.30;59.40;;;;;;5112326;28;20042;-80
2023/01/31 07:43:31;;;;;;;17.05;8.80;;;21.30;59.30;;;;;;5112665;28;20126;-83
2023/01/31 07:45:57;;;;;;;13.15;7.78;;;21.40;59.30;;;;;;5104539;28;20032;-80
2023/01/31 07:48:23;;;;;;;16.27;7.80;;;21.40;59.30;;;;;;5093796;28;20491;-80
2023/01/31 07:50:57;;;;;;;15.43;8.20;;;21.30;59.40;;;;;;5093545;28;20361;-84
2023/01/31 07:53:23;;;;;;;15.05;7.72;;;21.40;59.00;;;;;;5093874;28;20677;-80
2023/01/31 07:55:49;;;;;;;15.32;5.97;;;21.40;59.30;;;;;;5093452;28;20043;-83
2023/01/31 07:58:16;;;;;;;7.53;5.10;;;21.40;63.70;;;;;;5094083;28;20081;-85
2023/01/31 08:03:32;;;;;;;14.10;8.23;;;21.70;67.20;;;;;;5070261;28;20651;-77
2023/01/31 08:06:01;;;;;;;11.25;7.10;;;22.30;65.80;;;;;;5020506;28;20106;-81
2023/01/31 08:08:27;;;;;;;13.27;7.60;;;22.60;61.80;;;;;;5037140;28;20076;-78
2023/01/31 08:10:53;;;;;;;13.65;9.38;;;22.50;57.70;;;;;;5053776;28;20550;-79
2023/01/31 08:13:18;;;;;;;14.50;9.07;;;22.40;56.80;;;;;;5020317;28;20036;-79
2023/01/31 08:15:44;;;;;;;19.70;10.95;;;22.20;57.20;;;;;;5070015;28;20056;-76
2023/01/31 08:18:10;;;;;;;16.67;9.15;;;22.00;57.40;;;;;;5069750;28;20442;-82
2023/01/31 08:20:36;;;;;;;13.68;7.55;;;21.70;58.00;;;;;;5037336;28;20033;-75
2023/01/31 08:23:03;;;;;;;12.88;7.63;;;21.50;58.40;;;;;;5053526;28;20452;-83
2023/01/31 08:25:29;;;;;;;9.07;6.13;;;21.50;59.90;;;;;;5069800;28;20055;-79
2023/01/31 08:27:59;;;;;;;11.75;6.55;;;21.40;60.00;;;;;;5069742;28;20547;-80
2023/01/31 08:30:25;;;;;;;10.45;6.47;;;21.30;60.70;;;;;;5069830;28;20028;-79
2023/01/31 08:32:51;;;;;;;8.60;5.90;;;21.20;60.50;;;;;;5070291;28;20122;-83
2023/01/31 08:35:18;;;;;;;9.00;5.22;;;21.20;60.80;;;;;;5089301;28;20036;-78
2023/01/31 08:37:44;;;;;;;8.80;5.38;;;21.20;61.10;;;;;;5092648;28;20036;-78
2023/01/31 08:40:10;;;;;;;7.50;4.78;;;21.20;60.70;;;;;;5092603;28;20153;-79
2023/01/31 08:42:36;;;;;;;10.50;6.00;;;21.10;61.30;;;;;;5092779;28;20086;-77
2023/01/31 08:45:03;;;;;;;10.48;5.30;;;21.10;61.80;;;;;;5094166;28;20024;-81
2023/01/31 08:47:29;;;;;;;8.20;5.43;;;21.20;62.10;;;;;;5111644;28;20063;-81
2023/01/31 08:49:55;;;;;;;7.40;5.47;;;21.00;61.80;;;;;;5113030;28;20063;-79
2023/01/31 08:52:21;;;;;;;8.90;5.20;;;21.00;61.30;;;;;;5111686;28;20444;-80
2023/01/31 08:54:47;;;;;;;8.80;5.57;;;21.10;61.20;;;;;;5112802;28;20507;-80
2023/01/31 08:57:13;;;;;;;8.45;5.72;;;20.90;61.50;;;;;;5112635;28;20028;-76
2023/01/31 08:59:39;;;;;;;10.50;6.15;;;21.00;61.40;;;;;;5093302;28;20069;-76
2023/01/31 09:02:05;;;;;;;8.45;5.20;;;21.00;61.40;;;;;;5112654;28;20369;-78
2023/01/31 09:04:31;;;;;;;11.65;6.00;;;21.00;61.40;;;;;;5112489;28;20106;-74
2023/01/31 09:06:57;;;;;;;7.55;5.05;;;21.00;61.50;;;;;;5111734;28;20044;-75
2023/01/31 09:09:24;;;;;;;7.10;5.07;;;21.00;63.00;;;;;;5111843;28;20123;-75
2023/01/31 09:11:50;;;;;;;7.03;4.78;;;20.90;62.20;;;;;;5112015;28;20077;-76
2023/01/31 09:14:16;;;;;;;7.00;5.10;;;21.00;61.80;;;;;;5112329;28;20030;-77
2023/01/31 09:16:45;;;;;;;13.48;6.35;;;21.00;61.80;;;;;;5112544;28;20091;-78
2023/01/31 09:19:11;;;;;;;8.30;5.20;;;21.00;62.00;;;;;;5112349;28;20062;-75
2023/01/31 09:21:37;;;;;;;8.98;6.50;;;20.80;62.00;;;;;;5112156;28;20126;-76
2023/01/31 09:24:03;;;;;;;8.70;5.90;;;20.80;62.60;;;;;;5112350;28;20091;-76
2023/01/31 09:26:31;;;;;;;10.48;6.63;;;20.70;63.20;;;;;;5111978;28;20130;-77
2023/01/31 09:28:57;;;;;;;13.07;7.07;;;20.70;63.20;;;;;;5112262;28;20058;-78
2023/01/31 09:31:24;;;;;;;11.98;7.13;;;20.80;63.30;;;;;;5110089;28;20059;-77
2023/01/31 09:33:50;;;;;;;14.73;7.65;;;20.70;63.30;;;;;;5091863;28;20038;-76
2023/01/31 09:36:18;;;;;;;14.48;8.45;;;20.60;62.80;;;;;;5091862;28;20063;-81
2023/01/31 09:38:44;;;;;;;11.65;7.57;;;20.70;62.80;;;;;;5091899;28;20036;-81
2023/01/31 09:41:42;;;;;;;12.40;8.13;;;20.60;62.60;;;;;;5091675;28;20143;-77
2023/01/31 09:44:14;;;;;;;16.20;9.75;;;20.60;62.80;;;;;;5012448;28;20414;-77
2023/01/31 09:46:51;;;;;;;13.25;9.25;;;20.50;62.90;;;;;;5028983;28;20044;-78
2023/01/31 09:49:24;;;;;;;18.55;10.57;;;20.60;62.60;;;;;;5028058;28;20064;-79
2023/01/31 09:52:00;;;;;;;;;;;20.60;62.40;;;;;;5029665;28;20037;-79
2023/01/31 09:54:32;;;;;;;19.30;10.98;;;20.90;64.60;;;;;;5029131;28;20451;-78
2023/01/31 09:57:07;;;;;;;14.18;10.35;;;21.10;63.60;;;;;;5028478;28;20049;-77
2023/01/31 09:59:51;;;;;;;16.60;9.85;;;21.10;63.20;;;;;;5028947;28;20056;-79
2023/01/31 10:02:58;;;;;;;14.38;9.13;;;21.20;59.50;;;;;;5028685;28;20060;-83
2023/01/31 10:05:43;;;;;;;14.45;8.75;;;21.40;58.70;;;;;;5028868;28;20073;-81
2023/01/31 10:08:12;;;;;;;15.85;8.27;;;21.70;58.70;;;;;;5028833;28;20088;-83
2023/01/31 10:10:45;;;;;;;14.73;8.88;;;21.70;58.50;;;;;;4997969;28;20096;-79
2023/01/31 10:13:18;;;;;;;;;;;21.60;58.50;;;;;;4989984;28;20046;-86
2023/01/31 10:15:51;;;;;;;13.60;8.63;;;21.60;58.50;;;;;;4972511;28;19941;-77
2023/01/31 10:18:22;;;;;;;;;;;21.40;58.40;;;;;;5000766;28;20073;-79
2023/01/31 10:21:00;;;;;;;12.48;8.68;;;21.40;59.10;;;;;;5040140;28;20417;-75
2023/01/31 10:23:34;;;;;;;15.30;9.07;;;21.30;57.60;;;;;;5082481;28;20060;-75
2023/01/31 10:26:07;;;;;;;12.35;8.18;;;21.60;55.40;;;;;;5077530;28;20107;-74
2023/01/31 10:28:33;;;;;;;14.90;8.95;;;21.70;54.10;;;;;;5088421;28;20105;-76
2023/01/31 10:31:23;;;;;;;18.77;9.35;;;21.80;54.30;;;;;;5088323;28;20044;-76
2023/01/31 10:33:58;;;;;;;10.25;5.80;;;21.80;53.90;;;;;;5088379;28;20036;-77
2023/01/31 10:36:26;;;;;;;11.68;6.95;;;22.00;58.70;;;;;;5088064;28;20073;-78
2023/01/31 10:39:33;;;;;;;20.75;9.98;;;22.20;57.70;;;;;;5088487;28;20032;-82
2023/01/31 10:42:14;;;;;;;13.07;7.63;;;22.20;58.00;;;;;;5028537;28;20041;-79
2023/01/31 10:44:53;;;;;;;17.05;8.07;;;22.00;59.40;;;;;;5024132;28;20046;-81
2023/01/31 10:47:24;;;;;;;15.10;9.25;;;21.90;62.00;;;;;;5016013;28;20037;-79
2023/01/31 10:49:50;;;;;;;21.73;12.20;;;21.90;62.50;;;;;;5048171;28;20144;-81
2023/01/31 10:52:36;;;;;;;14.30;8.10;;;21.90;62.70;;;;;;5048487;28;20087;-82
2023/01/31 10:55:11;;;;;;;13.40;8.70;;;22.00;62.70;;;;;;5048112;28;20159;-81
2023/01/31 10:57:37;;;;;;;17.80;9.50;;;22.30;66.60;;;;;;5048109;28;20041;-80
2023/01/31 11:00:04;;;;;;;16.23;8.35;;;23.00;67.90;;;;;;5049469;28;20521;-83
2023/01/31 11:02:30;;;;;;;12.73;7.60;;;23.30;66.30;;;;;;5051978;28;20367;-81
2023/01/31 11:04:58;;;;;;;9.93;8.00;;;23.30;62.70;;;;;;5051755;28;20163;-80
2023/01/31 11:07:29;;;;;;;11.70;7.53;;;23.10;62.40;;;;;;5035226;28;20130;-82
2023/01/31 11:09:57;;;;;;;13.93;8.60;;;23.10;61.60;;;;;;5051560;28;20511;-84
2023/01/31 11:12:40;;;;;;;13.00;9.18;;;23.00;64.60;;;;;;5052039;28;20047;-80
2023/01/31 11:15:13;;;;;;;19.70;11.25;;;23.30;62.40;;;;;;5051676;28;20032;-81
2023/01/31 11:17:41;;;;;;;;;;;23.50;56.90;;;;;;5065067;28;20629;-82
2023/01/31 11:20:20;;;;;;;10.77;7.25;;;23.40;52.90;;;;;;5073984;28;19918;-78
2023/01/31 11:22:47;;;;;;;12.93;8.75;;;23.30;55.90;;;;;;5074178;28;20522;-81
2023/01/31 11:25:23;;;;;;;15.85;8.65;;;23.40;56.10;;;;;;5073779;28;20036;-83
2023/01/31 11:27:53;;;;;;;10.70;7.60;;;23.20;57.20;;;;;;5074025;28;20044;-83
2023/01/31 11:30:32;;;;;;;11.75;6.20;;;23.30;55.90;;;;;;5072955;28;20028;-83
2023/01/31 11:32:58;;;;;;;11.00;7.30;;;23.10;56.70;;;;;;5074028;28;20024;-84
2023/01/31 11:35:30;;;;;;;10.73;7.45;;;23.20;57.30;;;;;;5074229;28;20058;-85
2023/01/31 11:38:01;;;;;;;9.20;6.20;;;23.20;57.60;;;;;;5073952;28;20066;-84
2023/01/31 11:40:29;;;;;;;12.90;8.18;;;23.20;57.80;;;;;;5074376;28;20098;-83
2023/01/31 11:43:00;;;;;;;11.35;7.13;;;23.00;58.40;;;;;;5073874;28;20476;-84
2023/01/31 11:45:33;;;;;;;13.35;8.02;;;22.80;58.70;;;;;;5073837;28;20036;-85
2023/01/31 11:48:18;;;;;;;10.95;7.63;;;22.80;58.80;;;;;;5073781;28;20043;-89
2023/01/31 11:50:50;;;;;;;10.65;7.13;;;22.50;59.30;;;;;;5072644;28;20366;-86
2023/01/31 11:53:47;;;;;;;13.00;7.65;;;22.40;59.60;;;;;;5071275;28;20109;-84
2023/01/31 11:56:36;;;;;;;25.88;13.43;;;22.30;61.00;;;;;;5014423;28;20073;-87
2023/01/31 11:59:07;;;;;;;12.63;7.40;;;22.30;61.00;;;;;;5031171;28;20081;-87
2023/01/31 12:01:43;;;;;;;16.17;10.30;;;22.20;60.80;;;;;;5031295;28;20153;-80
2023/01/31 12:04:20;;;;;;;11.20;6.78;;;22.20;61.50;;;;;;5031271;28;20647;-83
2023/01/31 12:07:27;;;;;;;12.43;6.10;;;21.90;60.10;;;;;;5030880;28;20041;-83
2023/01/31 12:09:54;;;;;;;15.27;7.53;;;22.20;61.60;;;;;;4991349;28;20081;-83
2023/01/31 12:12:23;;;;;;;10.57;7.95;;;22.50;64.30;;;;;;4958544;28;20043;-83
2023/01/31 12:14:50;;;;;;;14.68;7.72;;;22.60;66.50;;;;;;4952926;29;20583;-84
2023/01/31 12:17:19;;;;;;;13.40;7.03;;;22.80;66.30;;;;;;4952431;29;20385;-82
2023/01/31 12:19:53;;;;;;;12.57;7.55;;;23.00;70.20;;;;;;4952574;29;20040;-80
2023/01/31 12:22:57;;;;;;;12.15;6.68;;;23.00;63.40;;;;;;4952630;29;20046;-77
2023/01/31 12:25:44;;;;;;;8.02;5.72;;;22.90;59.30;;;;;;4914243;29;20123;-78
2023/01/31 12:28:34;;;;;;;7.20;4.88;;;22.90;59.20;;;;;;4894760;29;20082;-78
2023/01/31 12:31:09;;;;;;;9.88;4.93;;;22.70;59.60;;;;;;4891268;29;20049;-81
2023/01/31 12:33:59;;;;;;;7.65;5.13;;;22.70;59.90;;;;;;4869994;29;20041;-85
2023/01/31 12:36:40;;;;;;;6.65;4.65;;;22.60;59.60;;;;;;4876439;29;20049;-84
2023/01/31 12:39:34;;;;;;;8.65;4.88;;;22.50;59.50;;;;;;4875935;29;20176;-81
2023/01/31 12:42:23;;;;;;;6.70;4.40;;;22.40;60.10;;;;;;4875788;29;20063;-78
2023/01/31 12:45:09;;;;;;;10.27;5.03;;;22.40;60.20;;;;;;4876133;29;20474;-78
2023/01/31 12:48:23;;;;;;;9.82;4.68;;;22.20;60.60;;;;;;4894852;29;20032;-77
2023/01/31 12:50:55;;;;;;;;;;;22.00;61.80;;;;;;4857729;29;20208;-78
2023/01/31 12:53:39;;;;;;;6.10;4.22;;;22.00;62.80;;;;;;4857468;29;20365;-81
2023/01/31 12:56:14;;;;;;;9.30;5.68;;;22.00;65.40;;;;;;4857140;29;20053;-78
2023/01/31 12:58:58;;;;;;;6.95;4.93;;;21.90;67.50;;;;;;4856976;29;20165;-74
2023/01/31 13:01:31;;;;;;;8.77;4.88;;;21.90;66.80;;;;;;4874219;28;20142;-78
2023/01/31 13:04:17;;;;;;;8.55;4.82;;;21.80;65.80;;;;;;4970605;28;20043;-78
2023/01/31 13:06:51;;;;;;;6.82;4.60;;;21.80;65.40;;;;;;5009591;28;20057;-76
2023/01/31 13:09:30;;;;;;;8.48;5.47;;;21.70;65.00;;;;;;5009761;28;20137;-78
2023/01/31 13:12:07;;;;;;;10.52;5.47;;;21.70;64.60;;;;;;5009611;28;20759;-79
2023/01/31 13:15:08;;;;;;;7.00;4.53;;;21.70;64.20;;;;;;5009835;28;20108;-80